Lehigh Valley International Airport Allentown US
ICAO: KABE
IATA: ABE
Category: Medium
Scheduled Services: Yes

Elevation: 393 ft
TransAlt. 18000 ft.

Airport Communications:
APP/DEP:118.2
ATIS:126.975
CLNC DEL:124.05
GND:121.9
WILLIAMSPORT RDO:117.5
TWR:120.5
UNICOM:122.95

KABE Zoom In..

Runways:

(A) RW 06 length 7599 ft width 150 ft
ILS 110.70 / hdg 63

(B) RW 13 length 5797 ft width 150 ft
ILS 111.90 / hdg 135

(C) RW 24 length 7599 ft width 150 ft
ILS 108.55 / hdg 243

(D) RW 31 length 5797 ft width 150 ft
---- / hdg 315

Location; KABE
Day. 20 / Time. 09.51 Zulu
* Altimeter: 30.15
* Temperature: 02° c. 35.6°f.
* Wind from: 330° Speed 12 kn with Gusts up to 22 kn.
Dewpoint: -06° c.
Visibility: 10 Statute Miles.
Clouds: Overcast 4600 ft.

KABE 200951Z 33012G22KT 10SM OVC046 02/M06 A3015 RMK AO2 SLP213 T00221061


Wind From 330°
Speed 12 kn.

  YouTube Music Video
 
jpsmedia.com for Web Design  worldairports.se 2018   terms of use